Time;durP1;ratioP1;P1;durP2;ratioP2;P2;SDS_P1;SDS_P2;PMS_P1;PMS_P2;Temp;Humidity;BMP_temperature;BMP_pressure;BME280_temperature;BME280_humidity;BME280_pressure;Samples;Min_cycle;Max_cycle;Signal;HPM_P1;HPM_P2
2023/07/22 00:00:05;;;;;;;6.15;3.20;;;;;;;;;;5115970;28;20051;-67
2023/07/22 00:02:32;;;;;;;5.25;3.13;;;;;;;;;;5116794;28;20031;-66
2023/07/22 00:05:01;;;;;;;3.97;3.00;;;;;;;;;;5115860;28;20031;-67
2023/07/22 00:07:27;;;;;;;7.00;3.22;;;;;;;;;;5115014;28;20048;-66
2023/07/22 00:09:53;;;;;;;6.65;3.50;;;;;;;;;;5114945;28;20072;-67
2023/07/22 00:12:19;;;;;;;6.85;3.45;;;;;;;;;;5114942;28;20036;-66
2023/07/22 00:14:46;;;;;;;5.80;3.50;;;;;;;;;;5114574;28;20032;-67
2023/07/22 00:17:12;;;;;;;5.05;2.90;;;;;;;;;;5114622;28;20023;-67
2023/07/22 00:19:38;;;;;;;5.25;3.10;;;;;;;;;;5114781;28;20035;-66
2023/07/22 00:22:04;;;;;;;4.22;2.88;;;;;;;;;;5114666;28;20069;-66
2023/07/22 00:24:30;;;;;;;4.43;2.90;;;;;;;;;;5114629;28;20028;-66
2023/07/22 00:26:56;;;;;;;5.85;3.25;;;;;;;;;;5114436;28;20015;-66
2023/07/22 00:29:23;;;;;;;5.45;3.00;;;;;;;;;;5114809;28;20469;-66
2023/07/22 00:31:49;;;;;;;4.57;2.90;;;;;;;;;;5114482;28;20096;-66
2023/07/22 00:34:16;;;;;;;4.85;3.08;;;;;;;;;;5114734;28;20473;-66
2023/07/22 00:36:46;;;;;;;5.75;3.33;;;;;;;;;;5114672;28;20040;-66
2023/07/22 00:39:14;;;;;;;4.82;2.90;;;;;;;;;;5114250;28;20012;-67
2023/07/22 00:41:42;;;;;;;4.13;2.80;;;;;;;;;;5114098;28;20035;-66
2023/07/22 00:44:08;;;;;;;5.38;3.00;;;;;;;;;;5114144;28;20027;-67
2023/07/22 00:46:34;;;;;;;5.28;3.13;;;;;;;;;;5114360;28;20085;-66
2023/07/22 00:49:00;;;;;;;5.50;3.33;;;;;;;;;;5114318;28;20030;-66
2023/07/22 00:51:27;;;;;;;6.40;2.90;;;;;;;;;;5114000;28;20433;-67
2023/07/22 00:53:53;;;;;;;4.00;2.92;;;;;;;;;;5113899;28;20052;-67
2023/07/22 00:56:19;;;;;;;4.80;3.00;;;;;;;;;;5114200;28;20024;-66
2023/07/22 00:58:45;;;;;;;5.30;2.88;;;;;;;;;;5113946;28;20027;-67
2023/07/22 01:01:11;;;;;;;4.40;2.80;;;;;;;;;;5114216;28;20088;-66
2023/07/22 01:03:38;;;;;;;4.18;2.80;;;;;;;;;;5114015;28;20035;-66
2023/07/22 01:06:04;;;;;;;5.30;3.28;;;;;;;;;;5113847;28;20052;-66
2023/07/22 01:08:30;;;;;;;5.07;2.80;;;;;;;;;;5113731;28;20058;-66
2023/07/22 01:10:56;;;;;;;4.68;3.15;;;;;;;;;;5113531;28;20024;-66
2023/07/22 01:13:22;;;;;;;4.20;2.88;;;;;;;;;;5113654;28;20030;-66
2023/07/22 01:15:49;;;;;;;5.57;2.72;;;;;;;;;;5113603;28;20098;-66
2023/07/22 01:18:15;;;;;;;5.20;3.05;;;;;;;;;;5113645;28;20103;-67
2023/07/22 01:20:41;;;;;;;4.28;2.75;;;;;;;;;;5113487;28;20445;-66
2023/07/22 01:23:07;;;;;;;3.85;2.83;;;;;;;;;;5113546;28;20098;-67
2023/07/22 01:25:34;;;;;;;4.88;3.00;;;;;;;;;;5113471;28;20073;-67
2023/07/22 01:28:00;;;;;;;4.35;2.75;;;;;;;;;;5112597;28;20147;-67
2023/07/22 01:30:27;;;;;;;5.03;2.83;;;;;;;;;;5113211;28;20106;-66
2023/07/22 01:32:53;;;;;;;4.90;2.80;;;;;;;;;;5113410;28;20462;-67
2023/07/22 01:35:20;;;;;;;6.88;3.28;;;;;;;;;;5113238;28;20449;-67
2023/07/22 01:37:46;;;;;;;4.93;2.90;;;;;;;;;;5113237;28;20028;-67
2023/07/22 01:40:12;;;;;;;4.90;2.75;;;;;;;;;;5113252;28;20031;-67
2023/07/22 01:42:39;;;;;;;3.88;2.65;;;;;;;;;;5112804;28;20027;-67
2023/07/22 01:45:07;;;;;;;6.88;3.05;;;;;;;;;;5113067;28;20035;-67
2023/07/22 01:47:34;;;;;;;4.95;2.70;;;;;;;;;;5113055;28;20496;-67
2023/07/22 01:50:03;;;;;;;4.40;2.92;;;;;;;;;;5112973;28;20053;-66
2023/07/22 01:52:29;;;;;;;5.53;3.15;;;;;;;;;;5112899;28;20162;-67
2023/07/22 01:54:55;;;;;;;4.05;2.80;;;;;;;;;;5112960;28;20533;-67
2023/07/22 01:57:22;;;;;;;5.90;2.95;;;;;;;;;;5112823;28;20027;-68
2023/07/22 01:59:48;;;;;;;4.65;2.90;;;;;;;;;;5112848;28;20054;-67
2023/07/22 02:02:14;;;;;;;4.10;2.75;;;;;;;;;;5112775;28;20138;-67
2023/07/22 02:04:42;;;;;;;4.15;2.70;;;;;;;;;;5112614;28;20032;-67
2023/07/22 02:07:08;;;;;;;4.15;2.60;;;;;;;;;;5113341;28;20032;-67
2023/07/22 02:09:35;;;;;;;5.70;3.20;;;;;;;;;;5112663;28;20028;-67
2023/07/22 02:12:02;;;;;;;4.82;2.70;;;;;;;;;;5112531;28;20032;-67
2023/07/22 02:14:29;;;;;;;4.22;2.70;;;;;;;;;;5112637;28;20038;-67
2023/07/22 02:16:58;;;;;;;4.40;2.75;;;;;;;;;;5112580;28;20485;-67
2023/07/22 02:19:24;;;;;;;4.97;2.90;;;;;;;;;;5112526;28;20027;-67
2023/07/22 02:21:51;;;;;;;5.95;2.80;;;;;;;;;;5112680;28;20358;-67
2023/07/22 02:24:20;;;;;;;6.32;3.40;;;;;;;;;;5112399;28;20378;-67
2023/07/22 02:26:46;;;;;;;3.83;2.53;;;;;;;;;;5112396;28;20045;-68
2023/07/22 02:29:15;;;;;;;4.30;2.97;;;;;;;;;;5112355;28;20028;-67
2023/07/22 02:31:41;;;;;;;4.32;2.70;;;;;;;;;;5112289;28;20019;-67
2023/07/22 02:34:10;;;;;;;4.38;2.83;;;;;;;;;;5112322;28;20023;-67
2023/07/22 02:36:40;;;;;;;6.53;3.10;;;;;;;;;;5112539;28;20422;-67
2023/07/22 02:39:09;;;;;;;4.05;2.55;;;;;;;;;;5112026;28;20107;-67
2023/07/22 02:41:36;;;;;;;5.10;3.00;;;;;;;;;;5112037;28;20012;-67
2023/07/22 02:44:03;;;;;;;5.80;2.92;;;;;;;;;;5112106;28;20073;-67
2023/07/22 02:46:29;;;;;;;5.20;2.78;;;;;;;;;;5112158;28;20031;-67
2023/07/22 02:48:56;;;;;;;5.03;3.10;;;;;;;;;;5112125;28;20024;-67
2023/07/22 02:51:22;;;;;;;5.65;2.90;;;;;;;;;;5112008;28;20024;-67
2023/07/22 02:53:48;;;;;;;4.70;2.95;;;;;;;;;;5111925;28;20393;-67
2023/07/22 02:56:14;;;;;;;5.07;3.05;;;;;;;;;;5112030;28;20032;-67
2023/07/22 02:58:41;;;;;;;5.63;2.90;;;;;;;;;;5112046;28;20032;-67
2023/07/22 03:01:08;;;;;;;6.50;3.28;;;;;;;;;;5112033;28;20130;-67
2023/07/22 03:03:35;;;;;;;5.28;2.97;;;;;;;;;;5111911;28;20024;-67
2023/07/22 03:06:03;;;;;;;6.18;3.15;;;;;;;;;;5111939;28;20046;-67
2023/07/22 03:08:29;;;;;;;4.60;2.90;;;;;;;;;;5111939;28;20375;-67
2023/07/22 03:10:55;;;;;;;4.13;2.70;;;;;;;;;;5111976;28;20466;-67
2023/07/22 03:13:22;;;;;;;5.47;2.80;;;;;;;;;;5111916;28;20028;-67
2023/07/22 03:15:48;;;;;;;5.63;2.90;;;;;;;;;;5111953;28;20060;-67
2023/07/22 03:18:14;;;;;;;5.22;2.90;;;;;;;;;;5111827;28;20032;-67
2023/07/22 03:20:41;;;;;;;5.28;3.33;;;;;;;;;;5111853;28;20081;-67
2023/07/22 03:23:07;;;;;;;4.57;3.03;;;;;;;;;;5111667;28;20027;-67
2023/07/22 03:25:34;;;;;;;5.63;3.05;;;;;;;;;;5111865;28;20027;-67
2023/07/22 03:28:03;;;;;;;4.50;3.03;;;;;;;;;;5111810;28;20035;-67
2023/07/22 03:30:31;;;;;;;4.53;2.80;;;;;;;;;;5111730;28;20030;-67
2023/07/22 03:33:00;;;;;;;4.20;2.60;;;;;;;;;;5111807;28;20494;-67
2023/07/22 03:35:30;;;;;;;6.95;3.13;;;;;;;;;;5111689;28;20381;-67
2023/07/22 03:37:56;;;;;;;5.20;3.08;;;;;;;;;;5111571;28;20027;-67
2023/07/22 03:40:30;;;;;;;5.07;3.05;;;;;;;;;;5111698;28;20478;-67
2023/07/22 03:42:57;;;;;;;4.65;2.90;;;;;;;;;;5111626;28;20106;-67
2023/07/22 03:45:23;;;;;;;5.38;3.03;;;;;;;;;;5111705;28;20461;-67
2023/07/22 03:47:52;;;;;;;5.60;3.30;;;;;;;;;;5111638;28;20465;-67
2023/07/22 03:50:21;;;;;;;6.15;3.10;;;;;;;;;;5113091;28;20113;-67
2023/07/22 03:52:47;;;;;;;6.88;3.35;;;;;;;;;;5115096;28;20401;-67
2023/07/22 03:55:19;;;;;;;6.07;3.10;;;;;;;;;;5115339;28;20032;-67
2023/07/22 03:57:50;;;;;;;5.20;2.80;;;;;;;;;;5115127;28;20028;-67
2023/07/22 04:00:17;;;;;;;4.63;3.00;;;;;;;;;;5115053;28;20028;-67
2023/07/22 04:02:43;;;;;;;4.90;2.80;;;;;;;;;;5115001;28;20028;-67
2023/07/22 04:05:09;;;;;;;6.05;3.33;;;;;;;;;;5115157;28;20024;-67
2023/07/22 04:07:35;;;;;;;4.90;3.00;;;;;;;;;;5114922;28;20024;-67
2023/07/22 04:10:02;;;;;;;5.47;3.28;;;;;;;;;;5114970;28;20024;-67
2023/07/22 04:12:29;;;;;;;4.95;2.70;;;;;;;;;;5115017;28;20038;-67
2023/07/22 04:14:55;;;;;;;6.30;3.50;;;;;;;;;;5115023;28;20110;-67
2023/07/22 04:17:23;;;;;;;4.68;2.90;;;;;;;;;;5114946;28;20034;-67
2023/07/22 04:19:51;;;;;;;4.75;3.08;;;;;;;;;;5114696;28;20481;-67
2023/07/22 04:22:18;;;;;;;5.63;3.00;;;;;;;;;;5114707;28;20110;-67
2023/07/22 04:24:44;;;;;;;4.47;2.60;;;;;;;;;;5114720;28;20104;-67
2023/07/22 04:27:10;;;;;;;4.85;2.90;;;;;;;;;;5114416;28;20131;-67
2023/07/22 04:29:36;;;;;;;4.78;2.90;;;;;;;;;;5114717;28;20026;-67
2023/07/22 04:32:03;;;;;;;7.15;3.10;;;;;;;;;;5114423;28;20020;-67
2023/07/22 04:34:30;;;;;;;6.97;3.08;;;;;;;;;;5114532;28;20023;-67
2023/07/22 04:36:56;;;;;;;5.82;2.97;;;;;;;;;;5114467;28;20028;-67
2023/07/22 04:39:25;;;;;;;4.50;3.00;;;;;;;;;;5114347;28;20034;-67
2023/07/22 04:41:51;;;;;;;4.65;2.90;;;;;;;;;;5114342;28;20419;-67
2023/07/22 04:44:18;;;;;;;5.88;2.88;;;;;;;;;;5114161;28;20460;-67
2023/07/22 04:46:44;;;;;;;4.88;3.00;;;;;;;;;;5114362;28;20016;-67
2023/07/22 04:49:17;;;;;;;5.53;3.22;;;;;;;;;;5114072;28;20156;-67
2023/07/22 04:51:43;;;;;;;4.35;2.90;;;;;;;;;;5114142;28;20023;-67
2023/07/22 04:54:09;;;;;;;5.25;3.22;;;;;;;;;;5113846;28;20051;-67
2023/07/22 04:56:35;;;;;;;4.40;2.90;;;;;;;;;;5113999;28;20031;-67
2023/07/22 04:59:02;;;;;;;5.03;3.00;;;;;;;;;;5114095;28;20497;-67
2023/07/22 05:01:29;;;;;;;4.95;3.20;;;;;;;;;;5114050;28;20039;-67
2023/07/22 05:04:01;;;;;;;6.28;3.08;;;;;;;;;;5113826;28;20489;-67
2023/07/22 05:06:30;;;;;;;4.47;2.80;;;;;;;;;;5113708;28;20034;-67
2023/07/22 05:08:56;;;;;;;4.53;2.80;;;;;;;;;;5113813;28;20024;-67
2023/07/22 05:11:23;;;;;;;4.75;2.92;;;;;;;;;;5113722;28;20016;-67
2023/07/22 05:13:49;;;;;;;5.40;3.22;;;;;;;;;;5113880;28;20110;-67
2023/07/22 05:16:16;;;;;;;5.20;3.30;;;;;;;;;;5113734;28;20035;-67
2023/07/22 05:18:42;;;;;;;8.00;3.50;;;;;;;;;;5113312;28;20154;-67
2023/07/22 05:21:11;;;;;;;5.20;3.30;;;;;;;;;;5113505;28;20068;-67
2023/07/22 05:23:38;;;;;;;5.30;3.28;;;;;;;;;;5113381;28;20107;-67
2023/07/22 05:26:07;;;;;;;5.20;2.90;;;;;;;;;;5113593;28;20035;-67
2023/07/22 05:28:38;;;;;;;7.20;3.15;;;;;;;;;;5113286;28;20095;-67
2023/07/22 05:31:05;;;;;;;5.43;3.03;;;;;;;;;;5113154;28;20020;-65
2023/07/22 05:33:31;;;;;;;5.70;3.17;;;;;;;;;;5113446;28;20020;-67
2023/07/22 05:35:57;;;;;;;5.68;3.13;;;;;;;;;;5113374;28;20035;-66
2023/07/22 05:38:23;;;;;;;4.38;3.03;;;;;;;;;;5113565;28;20088;-66
2023/07/22 05:40:52;;;;;;;6.25;3.20;;;;;;;;;;5113464;28;20027;-68
2023/07/22 05:43:26;;;;;;;5.35;2.80;;;;;;;;;;5113430;28;20648;-68
2023/07/22 05:45:53;;;;;;;5.10;2.90;;;;;;;;;;5113096;28;20085;-66
2023/07/22 05:48:21;;;;;;;5.65;3.15;;;;;;;;;;5113042;28;20023;-66
2023/07/22 05:50:47;;;;;;;4.15;2.80;;;;;;;;;;5112963;28;20066;-66
2023/07/22 05:53:14;;;;;;;5.25;2.97;;;;;;;;;;5112799;28;20409;-66
2023/07/22 05:55:40;;;;;;;4.43;2.80;;;;;;;;;;5112792;28;20030;-66
2023/07/22 05:58:06;;;;;;;6.82;3.28;;;;;;;;;;5112937;28;20103;-67
2023/07/22 06:00:33;;;;;;;5.35;3.13;;;;;;;;;;5112840;28;20461;-66
2023/07/22 06:02:59;;;;;;;4.82;2.97;;;;;;;;;;5112564;28;20046;-66
2023/07/22 06:05:26;;;;;;;5.20;3.10;;;;;;;;;;5112965;28;20519;-66
2023/07/22 06:07:54;;;;;;;4.93;3.17;;;;;;;;;;5112715;28;20134;-66
2023/07/22 06:10:21;;;;;;;4.88;3.10;;;;;;;;;;5112683;28;20098;-66
2023/07/22 06:12:49;;;;;;;4.78;2.97;;;;;;;;;;5112446;28;20043;-66
2023/07/22 06:15:19;;;;;;;5.28;3.10;;;;;;;;;;5112443;28;20031;-66
2023/07/22 06:17:45;;;;;;;5.93;3.47;;;;;;;;;;5112479;28;20020;-66
2023/07/22 06:20:12;;;;;;;4.93;3.00;;;;;;;;;;5112537;28;20027;-66
2023/07/22 06:22:38;;;;;;;5.68;3.17;;;;;;;;;;5112152;28;20035;-66
2023/07/22 06:25:04;;;;;;;4.78;3.10;;;;;;;;;;5112542;28;20028;-66
2023/07/22 06:27:31;;;;;;;5.18;3.20;;;;;;;;;;5112349;28;20023;-66
2023/07/22 06:30:00;;;;;;;5.10;3.35;;;;;;;;;;5112404;28;20124;-66
2023/07/22 06:32:28;;;;;;;4.75;2.97;;;;;;;;;;5112357;28;20027;-66
2023/07/22 06:34:56;;;;;;;4.55;2.97;;;;;;;;;;5112335;28;20020;-66
2023/07/22 06:37:22;;;;;;;5.20;3.47;;;;;;;;;;5112302;28;20377;-66
2023/07/22 06:39:48;;;;;;;7.25;3.42;;;;;;;;;;5112281;28;20051;-66
2023/07/22 06:42:19;;;;;;;5.85;3.40;;;;;;;;;;5111961;28;20031;-66
2023/07/22 06:44:50;;;;;;;4.72;3.10;;;;;;;;;;5112017;28;20023;-66
2023/07/22 06:47:20;;;;;;;5.82;3.13;;;;;;;;;;5112182;28;20470;-66
2023/07/22 06:49:52;;;;;;;5.45;3.20;;;;;;;;;;5112367;28;20103;-66
2023/07/22 06:52:18;;;;;;;5.97;3.47;;;;;;;;;;5112129;28;20034;-66
2023/07/22 06:54:44;;;;;;;3.88;2.80;;;;;;;;;;5112151;28;20019;-65
2023/07/22 06:57:17;;;;;;;4.53;2.80;;;;;;;;;;5112065;28;20523;-65
2023/07/22 06:59:46;;;;;;;5.55;2.95;;;;;;;;;;5112309;28;20027;-66
2023/07/22 07:02:13;;;;;;;3.85;2.90;;;;;;;;;;5111849;28;20041;-66
2023/07/22 07:04:39;;;;;;;5.13;3.25;;;;;;;;;;5111970;28;20527;-65
2023/07/22 07:07:14;;;;;;;5.55;3.25;;;;;;;;;;5112088;28;20024;-65
2023/07/22 07:09:45;;;;;;;5.40;3.17;;;;;;;;;;5111826;28;20524;-65
2023/07/22 07:12:19;;;;;;;4.57;2.80;;;;;;;;;;5112804;28;20043;-66
2023/07/22 07:14:51;;;;;;;4.90;3.20;;;;;;;;;;5111625;28;20020;-66
2023/07/22 07:17:21;;;;;;;4.70;2.80;;;;;;;;;;5111738;28;20027;-65
2023/07/22 07:20:00;;;;;;;5.45;3.20;;;;;;;;;;5112004;28;20031;-65
2023/07/22 07:22:41;;;;;;;3.70;2.88;;;;;;;;;;5111768;28;20406;-65
2023/07/22 07:25:18;;;;;;;4.53;2.97;;;;;;;;;;5113218;28;20022;-65
2023/07/22 07:27:47;;;;;;;4.35;2.72;;;;;;;;;;5115843;28;20465;-65
2023/07/22 07:30:21;;;;;;;5.10;2.90;;;;;;;;;;5115700;28;20055;-65
2023/07/22 07:32:47;;;;;;;4.47;3.10;;;;;;;;;;5115659;28;20105;-65
2023/07/22 07:35:14;;;;;;;5.22;3.13;;;;;;;;;;5115684;28;20098;-65
2023/07/22 07:37:40;;;;;;;4.38;2.85;;;;;;;;;;5115290;28;20051;-65
2023/07/22 07:40:07;;;;;;;4.45;2.88;;;;;;;;;;5115546;28;20072;-65
2023/07/22 07:42:33;;;;;;;5.47;3.00;;;;;;;;;;5115456;28;20073;-65
2023/07/22 07:45:02;;;;;;;5.07;3.20;;;;;;;;;;5115442;28;20015;-65
2023/07/22 07:47:34;;;;;;;4.82;3.00;;;;;;;;;;5115130;28;20074;-66
2023/07/22 07:50:06;;;;;;;4.55;2.80;;;;;;;;;;5115302;28;20054;-66
2023/07/22 07:52:38;;;;;;;4.18;3.10;;;;;;;;;;5115015;28;20051;-65
2023/07/22 07:55:10;;;;;;;7.72;3.10;;;;;;;;;;5115225;28;20054;-65
2023/07/22 07:57:44;;;;;;;5.13;2.90;;;;;;;;;;5115468;28;20033;-65
2023/07/22 08:00:13;;;;;;;5.88;3.00;;;;;;;;;;5115051;28;20032;-65
2023/07/22 08:02:39;;;;;;;4.80;2.95;;;;;;;;;;5115223;28;20044;-65
2023/07/22 08:05:08;;;;;;;4.07;2.95;;;;;;;;;;5114934;28;20070;-66
2023/07/22 08:07:37;;;;;;;5.15;3.13;;;;;;;;;;5114639;28;20030;-65
2023/07/22 08:10:04;;;;;;;5.32;2.85;;;;;;;;;;5114928;28;20027;-65
2023/07/22 08:12:31;;;;;;;5.45;2.92;;;;;;;;;;5114832;28;20370;-65
2023/07/22 08:15:01;;;;;;;5.00;2.83;;;;;;;;;;5114928;28;20060;-65
2023/07/22 08:17:27;;;;;;;4.63;2.90;;;;;;;;;;5114815;28;20032;-66
2023/07/22 08:19:53;;;;;;;4.97;2.97;;;;;;;;;;5114769;28;20030;-66
2023/07/22 08:22:19;;;;;;;5.05;3.47;;;;;;;;;;5114713;28;20221;-66
2023/07/22 08:24:46;;;;;;;4.93;2.75;;;;;;;;;;5114781;28;20055;-66
2023/07/22 08:27:18;;;;;;;4.95;2.67;;;;;;;;;;5114633;28;20102;-66
2023/07/22 08:29:44;;;;;;;4.83;3.00;;;;;;;;;;5114634;28;20028;-66
2023/07/22 08:32:10;;;;;;;4.10;2.90;;;;;;;;;;5114511;28;20056;-66
2023/07/22 08:34:42;;;;;;;4.20;2.85;;;;;;;;;;5114345;28;20433;-66
2023/07/22 08:37:19;;;;;;;4.95;3.08;;;;;;;;;;5113952;28;20024;-66
2023/07/22 08:39:47;;;;;;;4.47;2.92;;;;;;;;;;5114207;28;20023;-66
2023/07/22 08:42:19;;;;;;;4.20;2.90;;;;;;;;;;5114150;28;20026;-66
2023/07/22 08:44:59;;;;;;;5.03;2.90;;;;;;;;;;5114203;28;20027;-66
2023/07/22 08:47:27;;;;;;;5.25;2.90;;;;;;;;;;5114111;28;20027;-66
2023/07/22 08:50:05;;;;;;;3.88;2.92;;;;;;;;;;5114253;28;20476;-66
2023/07/22 08:52:31;;;;;;;5.50;3.20;;;;;;;;;;5113651;28;20031;-66
2023/07/22 08:54:58;;;;;;;5.40;3.50;;;;;;;;;;5114194;28;20111;-66
2023/07/22 08:57:24;;;;;;;3.88;3.00;;;;;;;;;;5113745;28;20024;-66
2023/07/22 08:59:50;;;;;;;4.28;2.90;;;;;;;;;;5114422;28;20066;-66
2023/07/22 09:02:18;;;;;;;4.20;2.97;;;;;;;;;;5114075;28;20110;-66
2023/07/22 09:04:48;;;;;;;4.32;2.67;;;;;;;;;;5098798;28;20047;-66
2023/07/22 09:07:25;;;;;;;5.70;3.05;;;;;;;;;;5093414;28;20020;-66
2023/07/22 09:10:04;;;;;;;3.58;2.80;;;;;;;;;;5093264;28;20044;-66
2023/07/22 09:12:40;;;;;;;5.75;3.38;;;;;;;;;;5093055;28;20103;-66
2023/07/22 09:15:12;;;;;;;3.75;2.88;;;;;;;;;;5093496;28;20051;-66
2023/07/22 09:17:42;;;;;;;4.33;2.80;;;;;;;;;;5093261;28;20027;-66
2023/07/22 09:20:23;;;;;;;4.28;2.92;;;;;;;;;;5093273;28;20355;-66
2023/07/22 09:22:55;;;;;;;4.28;2.80;;;;;;;;;;5092864;28;20028;-66
2023/07/22 09:25:42;;;;;;;3.35;2.60;;;;;;;;;;5092962;28;20032;-66
2023/07/22 09:28:19;;;;;;;4.22;2.85;;;;;;;;;;5092984;28;20024;-66
2023/07/22 09:30:50;;;;;;;3.90;2.72;;;;;;;;;;5093286;28;20020;-76
2023/07/22 09:33:22;;;;;;;4.03;2.88;;;;;;;;;;5093116;28;20070;-76
2023/07/22 09:35:49;;;;;;;3.33;2.63;;;;;;;;;;5093075;28;20036;-76
2023/07/22 09:38:22;;;;;;;4.68;3.00;;;;;;;;;;5093005;28;20385;-76
2023/07/22 09:40:48;;;;;;;3.78;2.92;;;;;;;;;;5093044;28;20381;-76
2023/07/22 09:43:22;;;;;;;5.03;3.25;;;;;;;;;;5093185;28;20502;-77
2023/07/22 09:45:48;;;;;;;5.88;3.30;;;;;;;;;;5093091;28;20035;-76
2023/07/22 09:48:15;;;;;;;4.30;2.95;;;;;;;;;;5074697;28;20024;-76
2023/07/22 09:50:41;;;;;;;4.50;2.83;;;;;;;;;;5094457;28;20052;-77
2023/07/22 09:53:07;;;;;;;4.50;3.05;;;;;;;;;;5113112;28;20535;-76
2023/07/22 09:55:37;;;;;;;4.20;2.90;;;;;;;;;;5113163;28;20060;-76
2023/07/22 09:58:05;;;;;;;4.45;2.90;;;;;;;;;;5113127;28;20094;-76
2023/07/22 10:00:37;;;;;;;4.22;2.90;;;;;;;;;;5112896;28;20031;-76
2023/07/22 10:03:10;;;;;;;4.03;2.95;;;;;;;;;;5113216;28;20064;-76
2023/07/22 10:05:42;;;;;;;3.88;2.80;;;;;;;;;;5112687;28;20047;-76
2023/07/22 10:08:09;;;;;;;4.40;2.90;;;;;;;;;;5112784;28;20023;-76
2023/07/22 10:10:39;;;;;;;4.15;2.90;;;;;;;;;;5111898;28;20026;-76
2023/07/22 10:13:05;;;;;;;4.95;3.00;;;;;;;;;;5111849;28;20027;-76
2023/07/22 10:15:34;;;;;;;4.35;3.00;;;;;;;;;;5112268;28;20040;-76
2023/07/22 10:18:01;;;;;;;3.10;2.65;;;;;;;;;;5112560;28;20028;-76
2023/07/22 10:20:27;;;;;;;3.95;2.70;;;;;;;;;;5112615;28;20496;-76
2023/07/22 10:22:53;;;;;;;5.03;3.03;;;;;;;;;;5112499;28;20042;-76
2023/07/22 10:25:20;;;;;;;3.83;2.90;;;;;;;;;;5113051;28;20020;-76
2023/07/22 10:27:47;;;;;;;3.33;2.58;;;;;;;;;;5112331;28;20024;-76
2023/07/22 10:30:17;;;;;;;3.78;2.85;;;;;;;;;;5112469;28;20024;-76
2023/07/22 10:38:08;;;;;;;4.78;3.35;;;;;;;;;;5109762;27;20369;-78
2023/07/22 10:40:45;;;;;;;3.97;2.85;;;;;;;;;;5109623;28;20031;-77
2023/07/22 10:43:11;;;;;;;4.28;2.78;;;;;;;;;;5109733;28;20440;-77
2023/07/22 10:45:41;;;;;;;3.53;2.83;;;;;;;;;;5109689;28;20103;-78
2023/07/22 10:48:09;;;;;;;3.63;2.92;;;;;;;;;;5109726;28;20028;-78
2023/07/22 10:50:42;;;;;;;4.00;2.88;;;;;;;;;;5109692;28;20024;-78
2023/07/22 10:53:21;;;;;;;3.80;2.88;;;;;;;;;;5109567;28;20034;-77
2023/07/22 10:56:07;;;;;;;3.88;3.10;;;;;;;;;;5109292;28;20028;-77
2023/07/22 10:58:53;;;;;;;3.75;3.00;;;;;;;;;;5109491;28;20415;-77
2023/07/22 11:04:13;;;;;;;4.78;2.85;;;;;;;;;;5109684;27;20700;-77
2023/07/22 11:06:40;;;;;;;3.38;2.90;;;;;;;;;;5109588;28;20027;-77
2023/07/22 11:09:06;;;;;;;3.85;3.05;;;;;;;;;;5109471;28;20024;-77
2023/07/22 11:11:39;;;;;;;4.47;3.00;;;;;;;;;;5109553;28;20020;-77
2023/07/22 11:14:13;;;;;;;4.22;2.92;;;;;;;;;;5109599;28;20016;-77
2023/07/22 11:16:39;;;;;;;3.17;2.67;;;;;;;;;;5109416;28;20485;-77
2023/07/22 11:19:05;;;;;;;4.82;3.00;;;;;;;;;;5091458;28;20594;-77
2023/07/22 11:21:32;;;;;;;4.03;2.67;;;;;;;;;;5089073;28;20481;-77
2023/07/22 11:24:34;;;;;;;3.65;2.78;;;;;;;;;;5088835;28;20036;-77
2023/07/22 11:27:10;;;;;;;3.37;2.70;;;;;;;;;;5088131;28;20025;-77
2023/07/22 11:29:40;;;;;;;3.70;2.90;;;;;;;;;;5088916;28;20039;-77
2023/07/22 11:32:16;;;;;;;3.72;2.92;;;;;;;;;;5088728;28;20060;-77
2023/07/22 11:34:46;;;;;;;4.97;2.80;;;;;;;;;;5088924;28;20036;-77
2023/07/22 11:37:13;;;;;;;3.70;3.03;;;;;;;;;;5088589;28;20032;-77
2023/07/22 11:39:41;;;;;;;3.88;3.05;;;;;;;;;;5088704;28;20016;-77
2023/07/22 11:42:07;;;;;;;2.90;2.50;;;;;;;;;;5088683;28;20236;-77
2023/07/22 11:44:34;;;;;;;2.95;2.60;;;;;;;;;;5088675;28;20021;-77
2023/07/22 11:47:03;;;;;;;4.00;3.00;;;;;;;;;;5088555;28;20458;-77
2023/07/22 11:49:40;;;;;;;3.72;2.70;;;;;;;;;;5088536;28;20103;-77
2023/07/22 11:52:17;;;;;;;3.08;2.60;;;;;;;;;;5088518;28;20526;-77
2023/07/22 11:54:44;;;;;;;3.55;2.70;;;;;;;;;;5088409;28;20470;-77
2023/07/22 11:57:18;;;;;;;3.58;2.80;;;;;;;;;;5088289;28;20028;-77
2023/07/22 11:59:45;;;;;;;3.47;2.88;;;;;;;;;;5088389;28;20055;-77
2023/07/22 12:02:19;;;;;;;3.70;2.60;;;;;;;;;;5088002;28;20153;-77
2023/07/22 12:04:58;;;;;;;4.28;2.88;;;;;;;;;;5088177;28;20028;-77
2023/07/22 12:07:25;;;;;;;4.05;3.00;;;;;;;;;;5088163;28;20032;-77
2023/07/22 12:09:53;;;;;;;3.97;3.00;;;;;;;;;;5088283;28;20021;-78
2023/07/22 12:12:19;;;;;;;3.50;2.75;;;;;;;;;;5088319;28;20105;-78
2023/07/22 12:14:45;;;;;;;3.55;2.70;;;;;;;;;;5078678;28;20099;-79
2023/07/22 12:17:11;;;;;;;3.60;2.78;;;;;;;;;;5074361;28;20052;-78
2023/07/22 12:19:51;;;;;;;3.45;2.90;;;;;;;;;;5074535;28;20036;-78
2023/07/22 12:22:17;;;;;;;3.58;2.90;;;;;;;;;;5074537;28;20028;-77
2023/07/22 12:24:48;;;;;;;3.70;2.83;;;;;;;;;;5074334;28;20536;-77
2023/07/22 12:27:14;;;;;;;3.65;2.85;;;;;;;;;;5074399;28;20028;-77
2023/07/22 12:29:40;;;;;;;3.60;3.00;;;;;;;;;;5074289;28;20099;-78
2023/07/22 12:32:06;;;;;;;5.05;3.25;;;;;;;;;;5074571;28;20548;-78
2023/07/22 12:34:33;;;;;;;3.28;2.72;;;;;;;;;;5074407;28;20757;-78
2023/07/22 12:36:59;;;;;;;4.38;2.65;;;;;;;;;;5074231;28;20624;-77
2023/07/22 12:39:35;;;;;;;4.22;2.88;;;;;;;;;;5074437;28;20033;-78
2023/07/22 12:42:01;;;;;;;3.85;3.05;;;;;;;;;;5074058;28;20024;-78
2023/07/22 12:44:28;;;;;;;3.58;2.83;;;;;;;;;;5073977;28;20035;-78
2023/07/22 12:46:54;;;;;;;3.88;2.90;;;;;;;;;;5073891;28;20074;-77
2023/07/22 12:49:20;;;;;;;4.47;3.00;;;;;;;;;;5073846;28;20128;-78
2023/07/22 12:51:46;;;;;;;4.15;2.88;;;;;;;;;;5073978;28;20374;-78
2023/07/22 12:54:13;;;;;;;3.40;2.72;;;;;;;;;;5073854;28;20017;-78
2023/07/22 12:56:39;;;;;;;3.60;2.95;;;;;;;;;;5073802;28;20534;-78
2023/07/22 12:59:05;;;;;;;3.85;2.78;;;;;;;;;;5073826;28;20478;-78
2023/07/22 13:01:31;;;;;;;3.90;2.70;;;;;;;;;;5073803;28;20035;-77
2023/07/22 13:03:57;;;;;;;4.38;3.10;;;;;;;;;;5073241;28;20060;-78
2023/07/22 13:06:23;;;;;;;3.72;2.70;;;;;;;;;;5073826;28;20040;-77
2023/07/22 13:08:50;;;;;;;3.58;2.80;;;;;;;;;;5073845;28;20443;-77
2023/07/22 13:11:16;;;;;;;4.00;2.70;;;;;;;;;;5073520;28;20039;-78
2023/07/22 13:13:42;;;;;;;3.65;2.90;;;;;;;;;;5073365;28;20024;-77
2023/07/22 13:16:08;;;;;;;4.35;2.83;;;;;;;;;;5073430;28;20077;-78
2023/07/22 13:18:34;;;;;;;3.63;2.92;;;;;;;;;;5073291;28;20024;-77
2023/07/22 13:21:00;;;;;;;3.88;3.10;;;;;;;;;;5073401;28;20030;-78
2023/07/22 13:23:26;;;;;;;3.75;2.70;;;;;;;;;;5073084;28;20033;-77
2023/07/22 13:25:52;;;;;;;3.10;2.80;;;;;;;;;;5072270;28;20024;-77
2023/07/22 13:28:18;;;;;;;3.60;2.95;;;;;;;;;;5073216;28;20016;-77
2023/07/22 13:30:45;;;;;;;3.70;2.83;;;;;;;;;;5073159;28;20021;-77
2023/07/22 13:33:11;;;;;;;3.80;2.72;;;;;;;;;;5073082;28;20035;-78
2023/07/22 13:35:37;;;;;;;4.53;2.95;;;;;;;;;;5073112;28;20028;-78
2023/07/22 13:38:04;;;;;;;2.70;2.50;;;;;;;;;;5072916;28;20351;-78
2023/07/22 13:40:30;;;;;;;3.58;2.80;;;;;;;;;;5072991;28;20036;-78
2023/07/22 13:42:56;;;;;;;3.22;2.90;;;;;;;;;;5072844;28;20028;-77
2023/07/22 13:45:23;;;;;;;2.88;2.58;;;;;;;;;;5072929;28;20025;-78
2023/07/22 13:47:49;;;;;;;3.70;2.67;;;;;;;;;;5072768;28;20052;-77
2023/07/22 13:50:15;;;;;;;4.28;2.95;;;;;;;;;;5072828;28;20047;-78
2023/07/22 13:52:42;;;;;;;3.25;2.70;;;;;;;;;;5072755;28;20028;-78
2023/07/22 13:55:09;;;;;;;3.22;2.60;;;;;;;;;;5072723;28;20016;-77
2023/07/22 13:57:35;;;;;;;3.90;2.90;;;;;;;;;;5072543;28;20394;-77
2023/07/22 14:00:01;;;;;;;3.33;3.00;;;;;;;;;;5072615;28;20032;-77
2023/07/22 14:02:27;;;;;;;3.53;2.75;;;;;;;;;;5072351;28;20057;-78
2023/07/22 14:04:53;;;;;;;3.38;2.92;;;;;;;;;;5072490;28;20229;-77
2023/07/22 14:07:26;;;;;;;3.53;2.80;;;;;;;;;;5072451;28;20478;-78
2023/07/22 14:10:01;;;;;;;3.17;2.70;;;;;;;;;;5072484;28;20052;-78
2023/07/22 14:12:27;;;;;;;3.00;2.53;;;;;;;;;;5072234;28;20095;-78
2023/07/22 14:14:53;;;;;;;3.13;2.80;;;;;;;;;;5072316;28;20411;-78
2023/07/22 14:17:22;;;;;;;2.88;2.50;;;;;;;;;;5072114;28;20020;-78
2023/07/22 14:19:48;;;;;;;3.35;2.83;;;;;;;;;;5071975;28;20066;-78
2023/07/22 14:22:14;;;;;;;3.35;2.80;;;;;;;;;;5072073;28;20032;-78
2023/07/22 14:24:40;;;;;;;3.38;2.72;;;;;;;;;;5072090;28;20031;-78
2023/07/22 14:27:09;;;;;;;3.83;2.90;;;;;;;;;;5072080;28;20035;-78
2023/07/22 14:29:35;;;;;;;3.30;2.78;;;;;;;;;;5071972;28;20467;-78
2023/07/22 14:32:16;;;;;;;3.47;2.92;;;;;;;;;;5072012;28;20052;-78
2023/07/22 14:34:45;;;;;;;3.58;2.85;;;;;;;;;;5071793;28;20021;-78
2023/07/22 14:40:30;;;;;;;3.08;2.60;;;;;;;;;;5016088;28;20025;-78
2023/07/22 14:43:11;;;;;;;2.97;2.67;;;;;;;;;;5067935;28;20510;-78
2023/07/22 14:45:40;;;;;;;4.20;2.88;;;;;;;;;;5071797;28;20052;-78
2023/07/22 14:50:56;;;;;;;4.32;2.65;;;;;;;;;;5070325;28;20470;-78
2023/07/22 14:53:43;;;;;;;;;;;;;;;;;;;;;
2023/07/22 14:56:10;;;;;;;3.40;2.65;;;;;;;;;;5058796;28;20032;-78
2023/07/22 14:58:56;;;;;;;4.05;2.92;;;;;;;;;;5072046;28;20485;-78
2023/07/22 15:01:40;;;;;;;3.15;2.53;;;;;;;;;;5071602;28;20021;-78
2023/07/22 15:04:13;;;;;;;2.97;2.67;;;;;;;;;;5071674;28;20072;-78